Tijuana, BCN, Mexico
Current Conditions -  °F | °C
As of 10:46 AM on Friday 24 Oct 2014 (Local Time) from MMTJ Reporting Station
Clear Clear  
Wind Chill: 84°   Ceiling: Unl
Heat Index: 84°   Visibility: 10mi
Dew Point: 36°   Wind: 5mph
Humidity: 18%   Direction: 180°S
Pressure: 30.02"   Gusts: NA
Location:  32.53°N, 117.02°W
Report Text: MMTJ 241746Z 18004KT 10SM SKC 29/02 A3002 RMK SLP156 52009 903 HZY
Loading
Personal Weather Stations






























Interactive Weather Map
Tropical Storm Tracking
New forecast layout! Learn more

10-Day Weather Forecast

Advertisements
Track Severe Weather on mobile